sensor_id;sensor_type;location;lat;lon;timestamp;P1;durP1;ratioP1;P2;durP2;ratioP2
5587;SDS011;2816;49.778;9.986;2022-07-04T00:02:22;4.00;;;1.60;;
5587;SDS011;2816;49.778;9.986;2022-07-04T00:04:49;4.23;;;1.80;;
5587;SDS011;2816;49.778;9.986;2022-07-04T00:07:16;1.67;;;1.40;;
5587;SDS011;2816;49.778;9.986;2022-07-04T00:09:45;3.77;;;1.50;;
5587;SDS011;2816;49.778;9.986;2022-07-04T00:12:12;1.40;;;1.20;;
5587;SDS011;2816;49.778;9.986;2022-07-04T00:14:39;1.53;;;1.10;;
5587;SDS011;2816;49.778;9.986;2022-07-04T00:17:07;1.80;;;1.60;;
5587;SDS011;2816;49.778;9.986;2022-07-04T00:19:34;3.50;;;1.53;;
5587;SDS011;2816;49.778;9.986;2022-07-04T00:22:01;1.43;;;1.33;;
5587;SDS011;2816;49.778;9.986;2022-07-04T00:24:27;1.50;;;1.40;;
5587;SDS011;2816;49.778;9.986;2022-07-04T00:26:56;1.20;;;1.10;;
5587;SDS011;2816;49.778;9.986;2022-07-04T00:29:23;2.23;;;1.60;;
5587;SDS011;2816;49.778;9.986;2022-07-04T00:31:50;2.47;;;1.30;;
5587;SDS011;2816;49.778;9.986;2022-07-04T00:34:17;1.80;;;1.70;;
5587;SDS011;2816;49.778;9.986;2022-07-04T00:36:44;2.43;;;1.40;;
5587;SDS011;2816;49.778;9.986;2022-07-04T00:39:11;1.83;;;1.20;;
5587;SDS011;2816;49.778;9.986;2022-07-04T00:41:38;3.63;;;1.80;;
5587;SDS011;2816;49.778;9.986;2022-07-04T00:44:06;2.10;;;1.43;;
5587;SDS011;2816;49.778;9.986;2022-07-04T00:46:34;2.23;;;1.63;;
5587;SDS011;2816;49.778;9.986;2022-07-04T00:49:02;2.63;;;1.70;;
5587;SDS011;2816;49.778;9.986;2022-07-04T00:51:30;5.83;;;1.50;;
5587;SDS011;2816;49.778;9.986;2022-07-04T00:53:57;4.43;;;1.60;;
5587;SDS011;2816;49.778;9.986;2022-07-04T00:56:26;1.97;;;1.30;;
5587;SDS011;2816;49.778;9.986;2022-07-04T00:58:53;2.40;;;1.37;;
5587;SDS011;2816;49.778;9.986;2022-07-04T01:01:21;2.73;;;1.67;;
5587;SDS011;2816;49.778;9.986;2022-07-04T01:03:48;1.40;;;1.30;;
5587;SDS011;2816;49.778;9.986;2022-07-04T01:06:15;2.43;;;1.80;;
5587;SDS011;2816;49.778;9.986;2022-07-04T01:08:44;9.93;;;1.60;;
5587;SDS011;2816;49.778;9.986;2022-07-04T01:11:12;1.40;;;1.30;;
5587;SDS011;2816;49.778;9.986;2022-07-04T01:13:39;1.67;;;1.57;;
5587;SDS011;2816;49.778;9.986;2022-07-04T01:16:07;2.23;;;1.70;;
5587;SDS011;2816;49.778;9.986;2022-07-04T01:18:37;3.30;;;1.43;;
5587;SDS011;2816;49.778;9.986;2022-07-04T01:21:06;3.00;;;1.40;;
5587;SDS011;2816;49.778;9.986;2022-07-04T01:23:36;2.17;;;1.80;;
5587;SDS011;2816;49.778;9.986;2022-07-04T01:26:04;3.03;;;1.43;;
5587;SDS011;2816;49.778;9.986;2022-07-04T01:28:31;1.90;;;1.40;;
5587;SDS011;2816;49.778;9.986;2022-07-04T01:30:58;1.50;;;1.40;;
5587;SDS011;2816;49.778;9.986;2022-07-04T01:33:25;4.23;;;1.53;;
5587;SDS011;2816;49.778;9.986;2022-07-04T01:35:52;2.30;;;1.57;;
5587;SDS011;2816;49.778;9.986;2022-07-04T01:38:21;2.57;;;1.40;;
5587;SDS011;2816;49.778;9.986;2022-07-04T01:40:48;4.50;;;1.40;;
5587;SDS011;2816;49.778;9.986;2022-07-04T01:43:15;4.30;;;1.80;;
5587;SDS011;2816;49.778;9.986;2022-07-04T01:45:42;3.43;;;1.63;;
5587;SDS011;2816;49.778;9.986;2022-07-04T01:48:09;1.80;;;1.40;;
5587;SDS011;2816;49.778;9.986;2022-07-04T01:50:38;2.23;;;1.47;;
5587;SDS011;2816;49.778;9.986;2022-07-04T01:53:05;4.20;;;1.87;;
5587;SDS011;2816;49.778;9.986;2022-07-04T01:55:34;2.70;;;1.40;;
5587;SDS011;2816;49.778;9.986;2022-07-04T01:58:01;2.83;;;1.50;;
5587;SDS011;2816;49.778;9.986;2022-07-04T02:00:28;2.80;;;1.60;;
5587;SDS011;2816;49.778;9.986;2022-07-04T02:03:13;3.53;;;1.63;;
5587;SDS011;2816;49.778;9.986;2022-07-04T02:05:40;3.33;;;1.50;;
5587;SDS011;2816;49.778;9.986;2022-07-04T02:08:08;1.77;;;1.50;;
5587;SDS011;2816;49.778;9.986;2022-07-04T02:10:37;1.97;;;1.40;;
5587;SDS011;2816;49.778;9.986;2022-07-04T02:13:04;2.00;;;1.60;;
5587;SDS011;2816;49.778;9.986;2022-07-04T02:15:30;2.03;;;1.67;;
5587;SDS011;2816;49.778;9.986;2022-07-04T02:18:00;1.93;;;1.73;;
5587;SDS011;2816;49.778;9.986;2022-07-04T02:20:28;5.70;;;1.60;;
5587;SDS011;2816;49.778;9.986;2022-07-04T02:22:55;3.03;;;1.87;;
5587;SDS011;2816;49.778;9.986;2022-07-04T02:25:22;5.60;;;1.63;;
5587;SDS011;2816;49.778;9.986;2022-07-04T02:27:50;3.47;;;1.60;;
5587;SDS011;2816;49.778;9.986;2022-07-04T02:30:17;1.87;;;1.67;;
5587;SDS011;2816;49.778;9.986;2022-07-04T02:32:44;3.77;;;1.97;;
5587;SDS011;2816;49.778;9.986;2022-07-04T02:35:11;3.33;;;1.80;;
5587;SDS011;2816;49.778;9.986;2022-07-04T02:37:38;2.10;;;1.60;;
5587;SDS011;2816;49.778;9.986;2022-07-04T02:40:06;2.73;;;1.60;;
5587;SDS011;2816;49.778;9.986;2022-07-04T02:42:34;2.83;;;1.70;;
5587;SDS011;2816;49.778;9.986;2022-07-04T02:45:03;5.23;;;1.97;;
5587;SDS011;2816;49.778;9.986;2022-07-04T02:47:31;4.63;;;1.87;;
5587;SDS011;2816;49.778;9.986;2022-07-04T02:49:59;4.03;;;1.83;;
5587;SDS011;2816;49.778;9.986;2022-07-04T02:52:27;2.20;;;1.63;;
5587;SDS011;2816;49.778;9.986;2022-07-04T02:54:55;4.40;;;1.60;;
5587;SDS011;2816;49.778;9.986;2022-07-04T02:57:22;1.70;;;1.60;;
5587;SDS011;2816;49.778;9.986;2022-07-04T02:59:49;1.67;;;1.57;;
5587;SDS011;2816;49.778;9.986;2022-07-04T03:02:17;4.70;;;1.80;;
5587;SDS011;2816;49.778;9.986;2022-07-04T03:04:44;2.83;;;1.80;;
5587;SDS011;2816;49.778;9.986;2022-07-04T03:07:11;2.17;;;1.30;;
5587;SDS011;2816;49.778;9.986;2022-07-04T03:09:38;3.40;;;1.87;;
5587;SDS011;2816;49.778;9.986;2022-07-04T03:12:06;2.10;;;1.60;;
5587;SDS011;2816;49.778;9.986;2022-07-04T03:14:33;4.00;;;1.90;;
5587;SDS011;2816;49.778;9.986;2022-07-04T03:17:00;4.90;;;1.77;;
5587;SDS011;2816;49.778;9.986;2022-07-04T03:19:28;2.13;;;1.93;;
5587;SDS011;2816;49.778;9.986;2022-07-04T03:21:55;3.60;;;1.80;;
5587;SDS011;2816;49.778;9.986;2022-07-04T03:24:22;3.10;;;1.50;;
5587;SDS011;2816;49.778;9.986;2022-07-04T03:26:49;6.30;;;2.00;;
5587;SDS011;2816;49.778;9.986;2022-07-04T03:29:16;1.90;;;1.80;;
5587;SDS011;2816;49.778;9.986;2022-07-04T03:31:43;3.93;;;1.70;;
5587;SDS011;2816;49.778;9.986;2022-07-04T03:34:10;1.77;;;1.63;;
5587;SDS011;2816;49.778;9.986;2022-07-04T03:36:39;1.93;;;1.63;;
5587;SDS011;2816;49.778;9.986;2022-07-04T03:39:06;2.10;;;1.90;;
5587;SDS011;2816;49.778;9.986;2022-07-04T03:41:32;6.47;;;2.10;;
5587;SDS011;2816;49.778;9.986;2022-07-04T03:44:01;4.90;;;2.00;;
5587;SDS011;2816;49.778;9.986;2022-07-04T03:46:28;3.47;;;1.83;;
5587;SDS011;2816;49.778;9.986;2022-07-04T03:48:55;1.87;;;1.63;;
5587;SDS011;2816;49.778;9.986;2022-07-04T03:51:22;5.07;;;2.00;;
5587;SDS011;2816;49.778;9.986;2022-07-04T03:53:50;2.93;;;2.00;;
5587;SDS011;2816;49.778;9.986;2022-07-04T03:56:17;2.40;;;1.80;;
5587;SDS011;2816;49.778;9.986;2022-07-04T03:58:44;3.53;;;1.53;;
5587;SDS011;2816;49.778;9.986;2022-07-04T04:01:14;3.67;;;1.70;;
5587;SDS011;2816;49.778;9.986;2022-07-04T04:03:41;2.40;;;2.00;;
5587;SDS011;2816;49.778;9.986;2022-07-04T04:06:26;1.97;;;1.80;;
5587;SDS011;2816;49.778;9.986;2022-07-04T04:08:55;8.53;;;2.00;;
5587;SDS011;2816;49.778;9.986;2022-07-04T04:11:22;2.27;;;2.07;;
5587;SDS011;2816;49.778;9.986;2022-07-04T04:13:49;2.80;;;1.73;;
5587;SDS011;2816;49.778;9.986;2022-07-04T04:16:16;2.63;;;1.90;;
5587;SDS011;2816;49.778;9.986;2022-07-04T04:18:43;2.33;;;1.87;;
5587;SDS011;2816;49.778;9.986;2022-07-04T04:21:10;2.90;;;2.07;;
5587;SDS011;2816;49.778;9.986;2022-07-04T04:23:37;4.10;;;2.20;;
5587;SDS011;2816;49.778;9.986;2022-07-04T04:26:05;3.30;;;2.00;;
5587;SDS011;2816;49.778;9.986;2022-07-04T04:28:32;2.93;;;1.93;;
5587;SDS011;2816;49.778;9.986;2022-07-04T04:30:59;2.37;;;1.87;;
5587;SDS011;2816;49.778;9.986;2022-07-04T04:33:26;6.90;;;2.00;;
5587;SDS011;2816;49.778;9.986;2022-07-04T04:35:53;2.03;;;1.77;;
5587;SDS011;2816;49.778;9.986;2022-07-04T04:38:21;6.20;;;1.97;;
5587;SDS011;2816;49.778;9.986;2022-07-04T04:40:47;2.70;;;1.87;;
5587;SDS011;2816;49.778;9.986;2022-07-04T04:43:16;2.40;;;1.73;;
5587;SDS011;2816;49.778;9.986;2022-07-04T04:45:43;3.87;;;1.90;;
5587;SDS011;2816;49.778;9.986;2022-07-04T04:48:10;3.77;;;1.70;;
5587;SDS011;2816;49.778;9.986;2022-07-04T04:50:37;4.50;;;2.00;;
5587;SDS011;2816;49.778;9.986;2022-07-04T04:53:03;2.00;;;1.70;;
5587;SDS011;2816;49.778;9.986;2022-07-04T04:55:30;2.60;;;1.93;;
5587;SDS011;2816;49.778;9.986;2022-07-04T04:57:57;5.10;;;1.70;;
5587;SDS011;2816;49.778;9.986;2022-07-04T05:00:25;3.37;;;2.20;;
5587;SDS011;2816;49.778;9.986;2022-07-04T05:02:52;2.70;;;1.73;;
5587;SDS011;2816;49.778;9.986;2022-07-04T05:05:19;3.67;;;1.80;;
5587;SDS011;2816;49.778;9.986;2022-07-04T05:07:46;2.00;;;1.77;;
5587;SDS011;2816;49.778;9.986;2022-07-04T05:10:14;4.60;;;1.87;;
5587;SDS011;2816;49.778;9.986;2022-07-04T05:12:41;4.20;;;1.80;;
5587;SDS011;2816;49.778;9.986;2022-07-04T05:15:09;6.33;;;1.67;;
5587;SDS011;2816;49.778;9.986;2022-07-04T05:17:38;4.53;;;2.00;;
5587;SDS011;2816;49.778;9.986;2022-07-04T05:20:05;3.27;;;1.70;;
5587;SDS011;2816;49.778;9.986;2022-07-04T05:22:33;5.07;;;1.93;;
5587;SDS011;2816;49.778;9.986;2022-07-04T05:25:00;4.30;;;2.20;;
5587;SDS011;2816;49.778;9.986;2022-07-04T05:27:27;3.67;;;1.90;;
5587;SDS011;2816;49.778;9.986;2022-07-04T05:29:56;5.73;;;2.07;;
5587;SDS011;2816;49.778;9.986;2022-07-04T05:32:22;3.97;;;1.97;;
5587;SDS011;2816;49.778;9.986;2022-07-04T05:34:51;6.27;;;2.10;;
5587;SDS011;2816;49.778;9.986;2022-07-04T05:37:18;2.37;;;1.93;;
5587;SDS011;2816;49.778;9.986;2022-07-04T05:39:45;9.00;;;2.10;;
5587;SDS011;2816;49.778;9.986;2022-07-04T05:42:12;2.17;;;1.50;;
5587;SDS011;2816;49.778;9.986;2022-07-04T05:44:39;4.30;;;1.90;;
5587;SDS011;2816;49.778;9.986;2022-07-04T05:47:06;11.20;;;1.70;;
5587;SDS011;2816;49.778;9.986;2022-07-04T05:49:33;3.47;;;1.60;;
5587;SDS011;2816;49.778;9.986;2022-07-04T05:52:02;4.33;;;1.53;;
5587;SDS011;2816;49.778;9.986;2022-07-04T05:54:29;4.60;;;1.80;;
5587;SDS011;2816;49.778;9.986;2022-07-04T05:56:56;1.87;;;1.63;;
5587;SDS011;2816;49.778;9.986;2022-07-04T05:59:23;7.80;;;2.00;;
5587;SDS011;2816;49.778;9.986;2022-07-04T06:01:50;4.73;;;1.70;;
5587;SDS011;2816;49.778;9.986;2022-07-04T06:04:17;4.50;;;1.90;;
5587;SDS011;2816;49.778;9.986;2022-07-04T06:06:44;5.37;;;2.10;;
5587;SDS011;2816;49.778;9.986;2022-07-04T06:09:13;2.23;;;1.50;;
5587;SDS011;2816;49.778;9.986;2022-07-04T06:11:39;4.13;;;1.80;;
5587;SDS011;2816;49.778;9.986;2022-07-04T06:14:06;2.70;;;1.70;;
5587;SDS011;2816;49.778;9.986;2022-07-04T06:16:33;2.60;;;1.90;;
5587;SDS011;2816;49.778;9.986;2022-07-04T06:19:00;3.93;;;2.00;;
5587;SDS011;2816;49.778;9.986;2022-07-04T06:21:27;5.20;;;1.73;;
5587;SDS011;2816;49.778;9.986;2022-07-04T06:23:54;6.27;;;1.57;;
5587;SDS011;2816;49.778;9.986;2022-07-04T06:26:24;5.70;;;1.93;;
5587;SDS011;2816;49.778;9.986;2022-07-04T06:28:51;2.90;;;1.60;;
5587;SDS011;2816;49.778;9.986;2022-07-04T06:31:18;3.60;;;1.80;;
5587;SDS011;2816;49.778;9.986;2022-07-04T06:33:45;8.00;;;1.70;;
5587;SDS011;2816;49.778;9.986;2022-07-04T06:36:29;4.43;;;1.90;;
5587;SDS011;2816;49.778;9.986;2022-07-04T06:38:57;2.80;;;1.90;;
5587;SDS011;2816;49.778;9.986;2022-07-04T06:41:25;3.37;;;2.07;;
5587;SDS011;2816;49.778;9.986;2022-07-04T06:43:52;5.00;;;1.60;;
5587;SDS011;2816;49.778;9.986;2022-07-04T06:46:20;2.10;;;1.90;;
5587;SDS011;2816;49.778;9.986;2022-07-04T06:48:46;4.43;;;1.80;;
5587;SDS011;2816;49.778;9.986;2022-07-04T06:51:14;3.77;;;1.67;;
5587;SDS011;2816;49.778;9.986;2022-07-04T06:53:41;5.53;;;2.00;;
5587;SDS011;2816;49.778;9.986;2022-07-04T06:56:10;3.47;;;2.40;;
5587;SDS011;2816;49.778;9.986;2022-07-04T06:58:38;3.13;;;1.67;;
5587;SDS011;2816;49.778;9.986;2022-07-04T07:01:05;4.37;;;1.70;;
5587;SDS011;2816;49.778;9.986;2022-07-04T07:03:32;17.57;;;2.17;;
5587;SDS011;2816;49.778;9.986;2022-07-04T07:05:59;8.23;;;1.90;;
5587;SDS011;2816;49.778;9.986;2022-07-04T07:08:27;4.73;;;1.60;;
5587;SDS011;2816;49.778;9.986;2022-07-04T07:10:55;2.60;;;1.60;;
5587;SDS011;2816;49.778;9.986;2022-07-04T07:13:22;9.53;;;2.07;;
5587;SDS011;2816;49.778;9.986;2022-07-04T07:15:50;3.77;;;1.57;;
5587;SDS011;2816;49.778;9.986;2022-07-04T07:18:17;10.30;;;1.80;;
5587;SDS011;2816;49.778;9.986;2022-07-04T07:20:44;3.83;;;1.93;;
5587;SDS011;2816;49.778;9.986;2022-07-04T07:23:11;3.97;;;1.97;;
5587;SDS011;2816;49.778;9.986;2022-07-04T07:25:38;2.43;;;1.50;;
5587;SDS011;2816;49.778;9.986;2022-07-04T07:28:05;3.87;;;1.80;;
5587;SDS011;2816;49.778;9.986;2022-07-04T07:30:34;4.83;;;1.77;;
5587;SDS011;2816;49.778;9.986;2022-07-04T07:33:03;3.20;;;1.90;;
5587;SDS011;2816;49.778;9.986;2022-07-04T07:35:30;4.70;;;1.67;;
5587;SDS011;2816;49.778;9.986;2022-07-04T07:37:57;4.53;;;1.80;;
5587;SDS011;2816;49.778;9.986;2022-07-04T07:40:24;5.10;;;1.80;;
5587;SDS011;2816;49.778;9.986;2022-07-04T07:42:50;7.50;;;2.50;;
5587;SDS011;2816;49.778;9.986;2022-07-04T07:45:19;6.23;;;1.77;;
5587;SDS011;2816;49.778;9.986;2022-07-04T07:47:46;3.20;;;1.97;;
5587;SDS011;2816;49.778;9.986;2022-07-04T07:50:14;1.83;;;1.73;;
5587;SDS011;2816;49.778;9.986;2022-07-04T07:52:41;2.27;;;1.80;;
5587;SDS011;2816;49.778;9.986;2022-07-04T07:55:08;13.23;;;1.90;;
5587;SDS011;2816;49.778;9.986;2022-07-04T07:57:35;2.87;;;1.80;;
5587;SDS011;2816;49.778;9.986;2022-07-04T08:00:03;4.23;;;1.70;;
5587;SDS011;2816;49.778;9.986;2022-07-04T08:02:31;6.87;;;2.10;;
5587;SDS011;2816;49.778;9.986;2022-07-04T08:05:17;3.80;;;1.80;;
5587;SDS011;2816;49.778;9.986;2022-07-04T08:07:44;4.23;;;1.83;;
5587;SDS011;2816;49.778;9.986;2022-07-04T08:10:11;4.40;;;2.10;;
5587;SDS011;2816;49.778;9.986;2022-07-04T08:12:38;4.97;;;1.60;;
5587;SDS011;2816;49.778;9.986;2022-07-04T08:15:06;6.60;;;1.73;;
5587;SDS011;2816;49.778;9.986;2022-07-04T08:17:34;3.77;;;1.93;;
5587;SDS011;2816;49.778;9.986;2022-07-04T08:20:01;4.03;;;1.87;;
5587;SDS011;2816;49.778;9.986;2022-07-04T08:22:30;5.80;;;2.00;;
5587;SDS011;2816;49.778;9.986;2022-07-04T08:24:57;4.50;;;1.90;;
5587;SDS011;2816;49.778;9.986;2022-07-04T08:27:24;2.03;;;1.73;;
5587;SDS011;2816;49.778;9.986;2022-07-04T08:29:51;7.53;;;1.80;;
5587;SDS011;2816;49.778;9.986;2022-07-04T08:32:18;4.17;;;1.90;;
5587;SDS011;2816;49.778;9.986;2022-07-04T08:34:45;4.20;;;1.67;;
5587;SDS011;2816;49.778;9.986;2022-07-04T08:37:13;9.80;;;2.13;;
5587;SDS011;2816;49.778;9.986;2022-07-04T08:39:41;5.70;;;1.97;;
5587;SDS011;2816;49.778;9.986;2022-07-04T08:42:09;3.00;;;1.80;;
5587;SDS011;2816;49.778;9.986;2022-07-04T08:44:45;4.53;;;1.70;;
5587;SDS011;2816;49.778;9.986;2022-07-04T08:47:15;1.87;;;1.50;;
5587;SDS011;2816;49.778;9.986;2022-07-04T08:49:46;2.50;;;1.63;;
5587;SDS011;2816;49.778;9.986;2022-07-04T08:52:23;2.10;;;1.70;;
5587;SDS011;2816;49.778;9.986;2022-07-04T08:54:58;2.90;;;1.80;;
5587;SDS011;2816;49.778;9.986;2022-07-04T08:57:44;2.30;;;1.60;;
5587;SDS011;2816;49.778;9.986;2022-07-04T09:00:30;2.47;;;1.50;;
5587;SDS011;2816;49.778;9.986;2022-07-04T09:02:57;4.53;;;1.73;;
5587;SDS011;2816;49.778;9.986;2022-07-04T09:05:26;6.53;;;2.10;;
5587;SDS011;2816;49.778;9.986;2022-07-04T09:07:53;4.67;;;1.80;;
5587;SDS011;2816;49.778;9.986;2022-07-04T09:10:22;3.27;;;1.53;;
5587;SDS011;2816;49.778;9.986;2022-07-04T09:12:51;12.23;;;1.80;;
5587;SDS011;2816;49.778;9.986;2022-07-04T09:15:18;2.20;;;1.83;;
5587;SDS011;2816;49.778;9.986;2022-07-04T09:17:45;3.90;;;1.60;;
5587;SDS011;2816;49.778;9.986;2022-07-04T09:20:13;12.00;;;1.60;;
5587;SDS011;2816;49.778;9.986;2022-07-04T09:22:41;5.60;;;1.60;;
5587;SDS011;2816;49.778;9.986;2022-07-04T09:25:09;2.77;;;1.60;;
5587;SDS011;2816;49.778;9.986;2022-07-04T09:27:41;5.10;;;1.87;;
5587;SDS011;2816;49.778;9.986;2022-07-04T09:30:10;5.30;;;1.50;;
5587;SDS011;2816;49.778;9.986;2022-07-04T09:32:39;6.93;;;1.87;;
5587;SDS011;2816;49.778;9.986;2022-07-04T09:35:07;2.20;;;1.60;;
5587;SDS011;2816;49.778;9.986;2022-07-04T09:37:37;1.90;;;1.40;;
5587;SDS011;2816;49.778;9.986;2022-07-04T09:40:06;2.30;;;1.43;;
5587;SDS011;2816;49.778;9.986;2022-07-04T09:42:35;2.83;;;1.63;;
5587;SDS011;2816;49.778;9.986;2022-07-04T09:45:05;5.60;;;1.60;;
5587;SDS011;2816;49.778;9.986;2022-07-04T09:47:35;2.17;;;1.40;;
5587;SDS011;2816;49.778;9.986;2022-07-04T09:50:04;3.33;;;1.40;;
5587;SDS011;2816;49.778;9.986;2022-07-04T09:52:33;4.30;;;1.53;;
5587;SDS011;2816;49.778;9.986;2022-07-04T09:55:19;6.80;;;1.50;;
5587;SDS011;2816;49.778;9.986;2022-07-04T09:57:47;3.77;;;1.50;;
5587;SDS011;2816;49.778;9.986;2022-07-04T10:00:20;5.70;;;1.53;;
5587;SDS011;2816;49.778;9.986;2022-07-04T10:02:50;4.47;;;1.80;;
5587;SDS011;2816;49.778;9.986;2022-07-04T10:05:19;1.70;;;1.50;;
5587;SDS011;2816;49.778;9.986;2022-07-04T10:07:48;3.13;;;1.50;;
5587;SDS011;2816;49.778;9.986;2022-07-04T10:10:22;2.20;;;1.30;;
5587;SDS011;2816;49.778;9.986;2022-07-04T10:13:00;1.93;;;1.53;;
5587;SDS011;2816;49.778;9.986;2022-07-04T10:15:29;3.47;;;1.50;;
5587;SDS011;2816;49.778;9.986;2022-07-04T10:17:57;2.53;;;1.60;;
5587;SDS011;2816;49.778;9.986;2022-07-04T10:20:25;5.30;;;1.50;;
5587;SDS011;2816;49.778;9.986;2022-07-04T10:22:52;2.30;;;1.47;;
5587;SDS011;2816;49.778;9.986;2022-07-04T10:25:19;9.73;;;1.70;;
5587;SDS011;2816;49.778;9.986;2022-07-04T10:27:46;1.47;;;1.30;;
5587;SDS011;2816;49.778;9.986;2022-07-04T10:30:17;4.70;;;1.77;;
5587;SDS011;2816;49.778;9.986;2022-07-04T10:32:50;4.17;;;1.40;;
5587;SDS011;2816;49.778;9.986;2022-07-04T10:35:18;1.50;;;1.40;;
5587;SDS011;2816;49.778;9.986;2022-07-04T10:38:16;2.33;;;1.37;;
5587;SDS011;2816;49.778;9.986;2022-07-04T10:40:44;3.73;;;1.30;;
5587;SDS011;2816;49.778;9.986;2022-07-04T10:46:24;3.50;;;1.60;;
5587;SDS011;2816;49.778;9.986;2022-07-04T10:48:58;3.33;;;1.10;;
5587;SDS011;2816;49.778;9.986;2022-07-04T10:51:38;1.83;;;1.20;;
5587;SDS011;2816;49.778;9.986;2022-07-04T10:54:09;1.60;;;1.10;;
5587;SDS011;2816;49.778;9.986;2022-07-04T10:56:43;1.60;;;1.30;;
5587;SDS011;2816;49.778;9.986;2022-07-04T10:59:16;1.70;;;1.40;;
5587;SDS011;2816;49.778;9.986;2022-07-04T11:01:44;2.90;;;1.20;;
5587;SDS011;2816;49.778;9.986;2022-07-04T11:07:13;5.20;;;1.50;;
5587;SDS011;2816;49.778;9.986;2022-07-04T11:09:40;2.27;;;1.20;;
5587;SDS011;2816;49.778;9.986;2022-07-04T11:12:08;3.53;;;1.30;;
5587;SDS011;2816;49.778;9.986;2022-07-04T11:14:36;2.30;;;1.60;;
5587;SDS011;2816;49.778;9.986;2022-07-04T11:17:05;1.63;;;1.20;;
5587;SDS011;2816;49.778;9.986;2022-07-04T11:19:33;1.40;;;1.10;;
5587;SDS011;2816;49.778;9.986;2022-07-04T11:22:02;1.70;;;1.00;;
5587;SDS011;2816;49.778;9.986;2022-07-04T11:24:31;0.93;;;0.90;;
5587;SDS011;2816;49.778;9.986;2022-07-04T11:26:58;3.90;;;1.17;;
5587;SDS011;2816;49.778;9.986;2022-07-04T11:29:26;2.80;;;1.00;;
5587;SDS011;2816;49.778;9.986;2022-07-04T11:31:54;2.20;;;1.30;;
5587;SDS011;2816;49.778;9.986;2022-07-04T11:34:21;2.57;;;1.60;;
5587;SDS011;2816;49.778;9.986;2022-07-04T11:36:50;4.20;;;1.00;;
5587;SDS011;2816;49.778;9.986;2022-07-04T11:39:19;1.53;;;1.30;;
5587;SDS011;2816;49.778;9.986;2022-07-04T11:41:47;3.50;;;1.37;;
5587;SDS011;2816;49.778;9.986;2022-07-04T11:44:33;3.40;;;1.83;;
5587;SDS011;2816;49.778;9.986;2022-07-04T11:47:19;4.43;;;1.40;;
5587;SDS011;2816;49.778;9.986;2022-07-04T11:49:48;6.23;;;1.10;;
5587;SDS011;2816;49.778;9.986;2022-07-04T11:52:18;2.00;;;1.03;;
5587;SDS011;2816;49.778;9.986;2022-07-04T11:54:48;1.37;;;1.10;;
5587;SDS011;2816;49.778;9.986;2022-07-04T11:57:17;1.53;;;1.10;;
5587;SDS011;2816;49.778;9.986;2022-07-04T11:59:55;1.30;;;1.10;;
5587;SDS011;2816;49.778;9.986;2022-07-04T12:02:23;2.50;;;1.00;;
5587;SDS011;2816;49.778;9.986;2022-07-04T12:04:51;2.27;;;1.00;;
5587;SDS011;2816;49.778;9.986;2022-07-04T12:07:19;2.80;;;1.07;;
5587;SDS011;2816;49.778;9.986;2022-07-04T12:09:49;1.43;;;1.10;;
5587;SDS011;2816;49.778;9.986;2022-07-04T12:12:17;3.90;;;1.10;;
5587;SDS011;2816;49.778;9.986;2022-07-04T12:14:57;1.50;;;1.07;;
5587;SDS011;2816;49.778;9.986;2022-07-04T12:17:35;1.97;;;1.20;;
5587;SDS011;2816;49.778;9.986;2022-07-04T12:20:03;2.50;;;1.07;;
5587;SDS011;2816;49.778;9.986;2022-07-04T12:22:38;0.83;;;0.83;;
5587;SDS011;2816;49.778;9.986;2022-07-04T12:25:18;3.93;;;1.10;;
5587;SDS011;2816;49.778;9.986;2022-07-04T12:27:51;6.03;;;1.00;;
5587;SDS011;2816;49.778;9.986;2022-07-04T12:30:19;1.17;;;1.00;;
5587;SDS011;2816;49.778;9.986;2022-07-04T12:32:47;1.27;;;1.17;;
5587;SDS011;2816;49.778;9.986;2022-07-04T12:35:31;0.90;;;0.80;;
5587;SDS011;2816;49.778;9.986;2022-07-04T12:38:07;1.57;;;1.00;;
5587;SDS011;2816;49.778;9.986;2022-07-04T12:40:37;1.67;;;1.00;;
5587;SDS011;2816;49.778;9.986;2022-07-04T12:43:15;1.90;;;0.90;;
5587;SDS011;2816;49.778;9.986;2022-07-04T12:45:46;1.40;;;1.20;;
5587;SDS011;2816;49.778;9.986;2022-07-04T12:48:14;1.33;;;1.13;;
5587;SDS011;2816;49.778;9.986;2022-07-04T12:50:45;1.53;;;1.00;;
5587;SDS011;2816;49.778;9.986;2022-07-04T12:53:13;1.20;;;1.00;;
5587;SDS011;2816;49.778;9.986;2022-07-04T12:55:43;4.17;;;1.00;;
5587;SDS011;2816;49.778;9.986;2022-07-04T12:58:11;1.10;;;1.00;;
5587;SDS011;2816;49.778;9.986;2022-07-04T13:00:39;4.90;;;1.10;;
5587;SDS011;2816;49.778;9.986;2022-07-04T13:03:07;3.63;;;1.20;;
5587;SDS011;2816;49.778;9.986;2022-07-04T13:05:34;9.07;;;1.10;;
5587;SDS011;2816;49.778;9.986;2022-07-04T13:08:02;3.33;;;0.97;;
5587;SDS011;2816;49.778;9.986;2022-07-04T13:10:30;1.83;;;1.10;;
5587;SDS011;2816;49.778;9.986;2022-07-04T13:12:59;1.33;;;1.00;;
5587;SDS011;2816;49.778;9.986;2022-07-04T13:15:27;1.37;;;1.00;;
5587;SDS011;2816;49.778;9.986;2022-07-04T13:17:54;2.23;;;0.80;;
5587;SDS011;2816;49.778;9.986;2022-07-04T13:20:21;3.00;;;1.20;;
5587;SDS011;2816;49.778;9.986;2022-07-04T13:22:48;5.60;;;1.10;;
5587;SDS011;2816;49.778;9.986;2022-07-04T13:25:15;2.30;;;1.00;;
5587;SDS011;2816;49.778;9.986;2022-07-04T13:27:42;1.00;;;0.97;;
5587;SDS011;2816;49.778;9.986;2022-07-04T13:30:11;1.40;;;0.93;;
5587;SDS011;2816;49.778;9.986;2022-07-04T13:32:38;1.53;;;0.90;;
5587;SDS011;2816;49.778;9.986;2022-07-04T13:35:06;8.20;;;1.40;;
5587;SDS011;2816;49.778;9.986;2022-07-04T13:37:33;5.87;;;1.20;;
5587;SDS011;2816;49.778;9.986;2022-07-04T13:40:01;2.60;;;1.17;;
5587;SDS011;2816;49.778;9.986;2022-07-04T13:42:28;1.43;;;1.00;;
5587;SDS011;2816;49.778;9.986;2022-07-04T13:45:13;1.87;;;1.03;;
5587;SDS011;2816;49.778;9.986;2022-07-04T13:47:41;2.40;;;1.20;;
5587;SDS011;2816;49.778;9.986;2022-07-04T13:50:08;2.10;;;1.10;;
5587;SDS011;2816;49.778;9.986;2022-07-04T13:52:35;7.50;;;1.20;;
5587;SDS011;2816;49.778;9.986;2022-07-04T13:55:02;0.90;;;0.87;;
5587;SDS011;2816;49.778;9.986;2022-07-04T13:57:30;1.90;;;0.90;;
5587;SDS011;2816;49.778;9.986;2022-07-04T13:59:57;2.20;;;1.30;;
5587;SDS011;2816;49.778;9.986;2022-07-04T14:02:25;2.10;;;1.20;;
5587;SDS011;2816;49.778;9.986;2022-07-04T14:04:52;0.90;;;0.80;;
5587;SDS011;2816;49.778;9.986;2022-07-04T14:07:19;2.50;;;0.90;;
5587;SDS011;2816;49.778;9.986;2022-07-04T14:09:46;2.00;;;1.10;;
5587;SDS011;2816;49.778;9.986;2022-07-04T14:12:14;1.10;;;1.00;;
5587;SDS011;2816;49.778;9.986;2022-07-04T14:14:41;3.43;;;1.10;;
5587;SDS011;2816;49.778;9.986;2022-07-04T14:17:09;3.40;;;1.07;;
5587;SDS011;2816;49.778;9.986;2022-07-04T14:19:37;1.90;;;0.97;;
5587;SDS011;2816;49.778;9.986;2022-07-04T14:22:04;3.20;;;1.10;;
5587;SDS011;2816;49.778;9.986;2022-07-04T14:24:31;2.70;;;0.80;;
5587;SDS011;2816;49.778;9.986;2022-07-04T14:26:58;3.90;;;1.00;;
5587;SDS011;2816;49.778;9.986;2022-07-04T14:29:25;2.30;;;1.00;;
5587;SDS011;2816;49.778;9.986;2022-07-04T14:31:53;0.90;;;0.90;;
5587;SDS011;2816;49.778;9.986;2022-07-04T14:34:20;2.60;;;0.93;;
5587;SDS011;2816;49.778;9.986;2022-07-04T14:36:48;0.93;;;0.80;;
5587;SDS011;2816;49.778;9.986;2022-07-04T14:39:15;1.37;;;0.93;;
5587;SDS011;2816;49.778;9.986;2022-07-04T14:41:43;2.10;;;1.10;;
5587;SDS011;2816;49.778;9.986;2022-07-04T14:44:12;2.03;;;1.13;;
5587;SDS011;2816;49.778;9.986;2022-07-04T14:46:39;2.70;;;0.90;;
5587;SDS011;2816;49.778;9.986;2022-07-04T14:49:07;5.40;;;1.03;;
5587;SDS011;2816;49.778;9.986;2022-07-04T14:51:34;1.13;;;1.00;;
5587;SDS011;2816;49.778;9.986;2022-07-04T14:54:04;1.10;;;0.87;;
5587;SDS011;2816;49.778;9.986;2022-07-04T14:56:31;2.00;;;0.90;;
5587;SDS011;2816;49.778;9.986;2022-07-04T14:58:58;2.03;;;0.97;;
5587;SDS011;2816;49.778;9.986;2022-07-04T15:01:25;1.00;;;0.93;;
5587;SDS011;2816;49.778;9.986;2022-07-04T15:03:53;4.63;;;1.20;;
5587;SDS011;2816;49.778;9.986;2022-07-04T15:06:20;2.70;;;1.33;;
5587;SDS011;2816;49.778;9.986;2022-07-04T15:08:47;1.10;;;1.00;;
5587;SDS011;2816;49.778;9.986;2022-07-04T15:11:16;0.90;;;0.90;;
5587;SDS011;2816;49.778;9.986;2022-07-04T15:13:42;1.80;;;1.10;;
5587;SDS011;2816;49.778;9.986;2022-07-04T15:16:09;1.40;;;1.20;;
5587;SDS011;2816;49.778;9.986;2022-07-04T15:18:36;2.63;;;1.10;;
5587;SDS011;2816;49.778;9.986;2022-07-04T15:21:03;3.53;;;1.00;;
5587;SDS011;2816;49.778;9.986;2022-07-04T15:23:47;1.60;;;1.13;;
5587;SDS011;2816;49.778;9.986;2022-07-04T15:26:33;2.50;;;1.10;;
5587;SDS011;2816;49.778;9.986;2022-07-04T15:29:00;2.67;;;1.20;;
5587;SDS011;2816;49.778;9.986;2022-07-04T15:31:27;1.10;;;1.00;;